Time,TemperatureF,DewpointF,PressureIn,WindDirection,WindDirectionDegrees,WindSpeedMPH,WindSpeedGustMPH,Humidity,HourlyPrecipIn,Conditions,Clouds,dailyrainin,SoftwareType,DateUTC
2013-12-29 00:01:00,43.5,41.3,30.21,ENE,78,3.0,5.0,92,0.06,-RA,,0.07,WeatherDisplay:10.37,2013-12-29 05:01:00,
2013-12-29 00:02:00,43.5,41.3,30.22,East,90,2.0,4.6,92,0.06,-RA,,0.00,WeatherDisplay:10.37,2013-12-29 05:02:00,
2013-12-29 00:07:00,43.3,41.1,30.22,ENE,68,2.5,3.5,92,0.07,-RA,,0.01,WeatherDisplay:10.37,2013-12-29 05:07:00,
2013-12-29 00:12:00,43.3,41.1,30.21,NNE,17,0.7,2.0,92,0.02,-RA,,0.03,WeatherDisplay:10.37,2013-12-29 05:12:00,
2013-12-29 00:17:00,43.2,41.0,30.20,NE,54,2.5,5.0,92,0.03,-RA,,0.04,WeatherDisplay:10.37,2013-12-29 05:17:00,
2013-12-29 00:22:00,43.1,40.9,30.20,ENE,72,2.8,4.6,92,0.04,-RA,,0.05,WeatherDisplay:10.37,2013-12-29 05:22:00,
2013-12-29 00:27:00,43.0,41.1,30.20,NNE,13,5.3,8.1,93,0.04,-RA,,0.06,WeatherDisplay:10.37,2013-12-29 05:27:00,
2013-12-29 00:32:00,43.0,41.1,30.19,ENE,75,2.1,3.5,93,0.03,-RA,,0.07,WeatherDisplay:10.37,2013-12-29 05:32:00,
2013-12-29 00:37:00,42.9,41.0,30.19,North,11,2.2,3.5,93,0.03,-RA,,0.07,WeatherDisplay:10.37,2013-12-29 05:37:00,
2013-12-29 00:42:00,42.9,41.3,30.19,NE,40,0.6,3.0,94,0.04,-RA,,0.08,WeatherDisplay:10.37,2013-12-29 05:42:00,
2013-12-29 00:47:00,42.9,41.3,30.18,NE,55,2.4,3.5,94,0.03,-RA,,0.08,WeatherDisplay:10.37,2013-12-29 05:47:00,
2013-12-29 00:52:00,42.9,41.3,30.18,NE,46,3.9,8.1,94,0.03,-RA,,0.08,WeatherDisplay:10.37,2013-12-29 05:52:00,
2013-12-29 00:57:00,42.9,41.3,30.18,NE,38,1.2,3.5,94,0.02,-RA,,0.08,WeatherDisplay:10.37,2013-12-29 05:57:00,
2013-12-29 01:02:00,42.9,41.3,30.18,North,350,2.3,4.0,94,0.08,-RA,,0.08,WeatherDisplay:10.37,2013-12-29 06:02:00,
2013-12-29 01:07:00,42.9,41.3,30.17,NNE,16,1.3,3.5,94,0.08,RA,,0.09,WeatherDisplay:10.37,2013-12-29 06:07:00,
2013-12-29 01:12:00,42.9,41.3,30.18,NNE,17,2.2,3.5,94,0.07,RA,,0.10,WeatherDisplay:10.37,2013-12-29 06:12:00,
2013-12-29 01:17:00,42.8,41.2,30.18,ENE,69,1.2,3.5,94,0.06,RA,,0.10,WeatherDisplay:10.37,2013-12-29 06:17:00,
2013-12-29 01:22:00,42.8,41.2,30.18,NE,52,1.2,3.5,94,0.06,RA,,0.11,WeatherDisplay:10.37,2013-12-29 06:22:00,
2013-12-29 01:27:00,42.7,41.1,30.18,NE,55,0.6,2.0,94,0.05,RA,,0.11,WeatherDisplay:10.37,2013-12-29 06:27:00,
2013-12-29 01:32:00,42.7,41.1,30.17,NE,37,0.4,1.1,94,0.05,RA,,0.12,WeatherDisplay:10.37,2013-12-29 06:32:00,
2013-12-29 01:37:00,42.7,41.4,30.17,NE,34,1.3,2.3,95,0.05,RA,,0.12,WeatherDisplay:10.37,2013-12-29 06:37:00,
2013-12-29 01:42:00,42.8,41.5,30.18,West,273,4.8,6.9,95,0.05,RA,,0.13,WeatherDisplay:10.37,2013-12-29 06:42:00,
2013-12-29 01:47:00,42.7,41.4,30.18,NNW,329,2.9,5.0,95,0.05,RA,,0.13,WeatherDisplay:10.37,2013-12-29 06:47:00,
2013-12-29 01:52:00,42.7,41.4,30.17,North,360,1.8,5.8,95,0.05,OVC,,0.13,WeatherDisplay:10.37,2013-12-29 06:52:00,
2013-12-29 01:57:00,42.6,41.3,30.17,NNW,340,2.9,5.8,95,0.06,RA,,0.14,WeatherDisplay:10.37,2013-12-29 06:57:00,
2013-12-29 02:02:00,42.6,41.3,30.17,NW,323,2.2,4.0,95,0.06,RA,,0.14,WeatherDisplay:10.37,2013-12-29 07:02:00,
2013-12-29 02:07:00,42.7,41.4,30.17,North,5,2.9,4.6,95,0.05,OVC,,0.14,WeatherDisplay:10.37,2013-12-29 07:07:00,
2013-12-29 02:12:00,42.6,41.3,30.16,North,355,1.2,3.5,95,0.05,RA,,0.15,WeatherDisplay:10.37,2013-12-29 07:12:00,
2013-12-29 02:17:00,42.7,41.4,30.15,NNW,344,1.6,4.0,95,0.06,RA,,0.16,WeatherDisplay:10.37,2013-12-29 07:17:00,
2013-12-29 02:22:00,42.7,41.4,30.15,NNE,24,1.9,3.5,95,0.05,RA,,0.16,WeatherDisplay:10.37,2013-12-29 07:22:00,
2013-12-29 02:27:00,42.7,41.4,30.15,NE,46,2.6,3.5,95,0.06,RA,,0.17,WeatherDisplay:10.37,2013-12-29 07:27:00,
2013-12-29 02:32:00,42.7,41.4,30.15,North,355,2.0,3.5,95,0.05,RA,,0.17,WeatherDisplay:10.37,2013-12-29 07:32:00,
2013-12-29 02:37:00,42.8,41.5,30.15,North,350,2.4,3.5,95,0.07,RA,,0.20,WeatherDisplay:10.37,2013-12-29 07:37:00,
2013-12-29 02:42:00,42.8,41.5,30.14,NW,321,2.4,3.5,95,0.09,RA,,0.22,WeatherDisplay:10.37,2013-12-29 07:42:00,
2013-12-29 02:47:00,42.9,41.8,30.14,NE,39,1.8,3.0,96,0.11,RA,,0.24,WeatherDisplay:10.37,2013-12-29 07:47:00,
2013-12-29 02:52:00,42.9,41.8,30.14,NNE,12,2.4,4.6,96,0.13,RA,,0.26,WeatherDisplay:10.37,2013-12-29 07:52:00,
2013-12-29 02:57:00,43.0,41.9,30.13,NNE,24,3.4,7.0,96,0.14,RA,,0.28,WeatherDisplay:10.37,2013-12-29 07:57:00,
2013-12-29 03:02:00,43.0,41.9,30.12,North,355,2.9,8.1,96,0.16,RA,,0.30,WeatherDisplay:10.37,2013-12-29 08:02:00,
2013-12-29 03:07:00,43.0,41.9,30.11,NE,35,4.7,8.1,96,0.18,RA,,0.32,WeatherDisplay:10.37,2013-12-29 08:07:00,
2013-12-29 03:12:00,43.0,41.9,30.10,NNE,33,3.5,6.9,96,0.18,RA,,0.33,WeatherDisplay:10.37,2013-12-29 08:12:00,
2013-12-29 03:17:00,43.0,41.9,30.10,NE,55,1.5,5.0,96,0.17,RA,,0.33,WeatherDisplay:10.37,2013-12-29 08:17:00,
2013-12-29 03:22:00,43.1,42.0,30.10,NE,36,3.1,4.6,96,0.17,OVC,,0.33,WeatherDisplay:10.37,2013-12-29 08:22:00,
2013-12-29 03:27:00,43.1,42.0,30.09,ENE,65,5.9,9.2,96,0.17,RA,,0.34,WeatherDisplay:10.37,2013-12-29 08:27:00,
2013-12-29 03:32:00,43.2,42.1,30.09,NNE,31,3.9,7.0,96,0.17,RA,,0.34,WeatherDisplay:10.37,2013-12-29 08:32:00,
2013-12-29 03:37:00,43.3,42.2,30.09,NNE,15,3.3,4.6,96,0.16,RA,,0.35,WeatherDisplay:10.37,2013-12-29 08:37:00,
2013-12-29 03:42:00,43.4,42.3,30.08,NE,54,3.4,5.8,96,0.13,RA,,0.35,WeatherDisplay:10.37,2013-12-29 08:42:00,
2013-12-29 03:47:00,43.5,42.4,30.07,NNE,30,2.6,6.0,96,0.12,RA,,0.36,WeatherDisplay:10.37,2013-12-29 08:47:00,
2013-12-29 03:52:00,43.5,42.4,30.07,NNE,31,2.8,4.0,96,0.10,RA,,0.36,WeatherDisplay:10.37,2013-12-29 08:52:00,
2013-12-29 03:57:00,43.6,42.5,30.06,NE,39,3.7,8.1,96,0.08,OVC,,0.36,WeatherDisplay:10.37,2013-12-29 08:57:00,
2013-12-29 04:02:00,43.7,42.6,30.06,NNE,15,4.0,8.1,96,0.06,OVC,,0.36,WeatherDisplay:10.37,2013-12-29 09:02:00,
2013-12-29 04:07:00,43.7,42.6,30.06,NNE,23,2.6,5.8,96,0.04,OVC,,0.36,WeatherDisplay:10.37,2013-12-29 09:07:00,
2013-12-29 04:12:00,43.8,42.7,30.06,NE,56,1.8,4.0,96,0.04,RA,,0.37,WeatherDisplay:10.37,2013-12-29 09:12:00,
2013-12-29 04:17:00,43.8,42.7,30.05,NNE,23,1.7,3.5,96,0.05,RA,,0.38,WeatherDisplay:10.37,2013-12-29 09:17:00,
2013-12-29 04:22:00,43.8,42.7,30.05,NNE,21,2.9,4.6,96,0.06,RA,,0.39,WeatherDisplay:10.37,2013-12-29 09:22:00,
2013-12-29 04:27:00,43.9,42.8,30.04,NE,34,1.7,3.5,96,0.05,RA,,0.39,WeatherDisplay:10.37,2013-12-29 09:27:00,
2013-12-29 04:32:00,43.9,42.8,30.04,North,11,3.4,6.9,96,0.06,RA,,0.40,WeatherDisplay:10.37,2013-12-29 09:32:00,
2013-12-29 04:37:00,44.0,42.9,30.03,North,360,2.8,3.5,96,0.06,RA,,0.41,WeatherDisplay:10.37,2013-12-29 09:37:00,
2013-12-29 04:42:00,44.0,42.9,30.02,ENE,67,2.9,3.5,96,0.08,RA,,0.43,WeatherDisplay:10.37,2013-12-29 09:42:00,
2013-12-29 04:47:00,44.1,43.0,30.02,NE,42,3.3,4.6,96,0.08,RA,,0.44,WeatherDisplay:10.37,2013-12-29 09:47:00,
2013-12-29 04:52:00,44.0,42.9,30.02,NE,55,3.0,5.8,96,0.09,RA,,0.46,WeatherDisplay:10.37,2013-12-29 09:52:00,
2013-12-29 04:57:00,44.1,43.0,30.01,NNW,342,1.6,3.5,96,0.11,RA,,0.47,WeatherDisplay:10.37,2013-12-29 09:57:00,
2013-12-29 05:02:00,44.1,43.0,30.02,North,355,1.1,3.0,96,0.12,RA,,0.48,WeatherDisplay:10.37,2013-12-29 10:02:00,
2013-12-29 05:07:00,44.1,43.0,30.01,NNE,27,2.0,3.5,96,0.14,RA,,0.51,WeatherDisplay:10.37,2013-12-29 10:07:00,
2013-12-29 05:12:00,44.2,43.1,30.01,ENE,73,1.6,2.3,96,0.17,RA,,0.55,WeatherDisplay:10.37,2013-12-29 10:12:00,
2013-12-29 05:17:00,44.2,43.1,30.00,North,5,3.1,4.6,96,0.20,RA,,0.58,WeatherDisplay:10.37,2013-12-29 10:17:00,
2013-12-29 05:22:00,44.2,43.1,30.00,SE,145,0.9,2.3,96,0.21, +RA,,0.60,WeatherDisplay:10.37,2013-12-29 10:22:00,
2013-12-29 05:27:00,44.3,43.2,30.00,ENE,74,2.3,3.5,96,0.22, +RA,,0.61,WeatherDisplay:10.37,2013-12-29 10:27:00,
2013-12-29 05:32:00,44.3,43.2,29.99,NE,35,1.8,3.5,96,0.22, +RA,,0.63,WeatherDisplay:10.37,2013-12-29 10:32:00,
2013-12-29 05:37:00,44.4,43.3,29.99,ESE,103,1.8,3.5,96,0.23, +RA,,0.64,WeatherDisplay:10.37,2013-12-29 10:37:00,
2013-12-29 05:42:00,44.4,43.3,29.99,NE,49,1.2,3.5,96,0.22, +RA,,0.65,WeatherDisplay:10.37,2013-12-29 10:42:00,
2013-12-29 05:47:00,44.5,43.4,29.98,ENE,65,1.1,3.5,96,0.23, +RA,,0.67,WeatherDisplay:10.37,2013-12-29 10:47:00,
2013-12-29 05:52:00,44.6,43.5,29.98,WSW,240,1.7,3.5,96,0.23, +RA,,0.69,WeatherDisplay:10.37,2013-12-29 10:52:00,
2013-12-29 05:57:00,44.8,44.0,29.97,SE,146,4.1,4.6,97,0.22, +RA,,0.69,WeatherDisplay:10.37,2013-12-29 10:57:00,
2013-12-29 06:02:00,45.0,44.2,29.98,SSE,157,4.0,5.0,97,0.22, +RA,,0.71,WeatherDisplay:10.37,2013-12-29 11:02:00,
2013-12-29 06:07:00,45.2,44.4,29.97,SE,127,3.1,8.0,97,0.21,RA,,0.72,WeatherDisplay:10.37,2013-12-29 11:07:00,
2013-12-29 06:12:00,45.6,44.8,29.96,NE,55,3.4,4.6,97,0.19,RA,,0.73,WeatherDisplay:10.37,2013-12-29 11:12:00,
2013-12-29 06:17:00,46.0,45.2,29.97,SE,135,2.0,3.5,97,0.16,RA,,0.74,WeatherDisplay:10.37,2013-12-29 11:17:00,
2013-12-29 06:22:00,46.6,45.8,29.96,SSE,151,0.6,1.1,97,0.15,RA,,0.75,WeatherDisplay:10.37,2013-12-29 11:22:00,
2013-12-29 06:27:00,46.9,46.1,29.96,SE,125,2.9,4.6,97,0.16,RA,,0.77,WeatherDisplay:10.37,2013-12-29 11:27:00,
2013-12-29 06:32:00,47.1,46.3,29.95,ESE,123,4.2,6.9,97,0.16,RA,,0.78,WeatherDisplay:10.37,2013-12-29 11:32:00,
2013-12-29 06:37:00,47.8,47.0,29.95,SE,124,4.1,4.6,97,0.16,-RA,,0.80,WeatherDisplay:10.37,2013-12-29 11:37:00,
2013-12-29 06:42:00,48.3,47.5,29.94,SSE,163,5.5,9.2,97,0.17,-RA,,0.82,WeatherDisplay:10.37,2013-12-29 11:42:00,
2013-12-29 06:47:00,48.4,47.6,29.94,East,81,3.6,6.0,97,0.16,-RA,,0.83,WeatherDisplay:10.37,2013-12-29 11:47:00,
2013-12-29 06:52:00,48.6,47.8,29.94,SE,144,4.8,8.1,97,0.15,-RA,,0.83,WeatherDisplay:10.37,2013-12-29 11:52:00,
2013-12-29 06:57:00,48.9,48.1,29.94,SE,130,3.1,5.8,97,0.14,-RA,,0.83,WeatherDisplay:10.37,2013-12-29 11:57:00,
2013-12-29 07:02:00,49.0,48.2,29.94,SSE,157,2.6,3.5,97,0.14,-RA,,0.84,WeatherDisplay:10.37,2013-12-29 12:02:00,
2013-12-29 07:07:00,49.2,48.4,29.94,SSE,155,3.0,5.8,97,0.13,RA,,0.85,WeatherDisplay:10.37,2013-12-29 12:07:00,
2013-12-29 07:12:00,49.5,48.7,29.93,SE,141,4.4,7.0,97,0.12,RA,,0.85,WeatherDisplay:10.37,2013-12-29 12:12:00,
2013-12-29 07:17:00,49.9,49.1,29.93,South,179,4.9,9.2,97,0.12,RA,,0.86,WeatherDisplay:10.37,2013-12-29 12:17:00,
2013-12-29 07:22:00,50.6,49.8,29.93,SE,140,8.4,11.5,97,0.12, +RA,,0.87,WeatherDisplay:10.37,2013-12-29 12:22:00,
2013-12-29 07:27:00,51.2,50.4,29.92,SSE,155,6.4,10.4,97,0.11, +RA,,0.88,WeatherDisplay:10.37,2013-12-29 12:27:00,
2013-12-29 07:32:00,51.4,50.6,29.92,SSE,164,7.6,11.5,97,0.11, +RA,,0.89,WeatherDisplay:10.37,2013-12-29 12:32:00,
2013-12-29 07:37:00,51.7,51.2,29.91,SE,142,5.4,8.1,98,0.11, +RA,,0.92,WeatherDisplay:10.37,2013-12-29 12:37:00,
2013-12-29 07:42:00,52.2,51.4,29.91,SSE,167,4.7,8.1,97,0.12, +RA,,0.94,WeatherDisplay:10.37,2013-12-29 12:42:00,
2013-12-29 07:47:00,52.7,51.9,29.91,SSE,163,5.8,10.4,97,0.13, +RA,,0.96,WeatherDisplay:10.37,2013-12-29 12:47:00,
2013-12-29 07:52:00,53.2,52.4,29.91,South,177,6.1,10.4,97,0.14, +RA,,0.97,WeatherDisplay:10.37,2013-12-29 12:52:00,
2013-12-29 07:57:00,53.7,53.1,29.91,South,182,3.8,4.0,98,0.15, +RA,,0.98,WeatherDisplay:10.37,2013-12-29 12:57:00,
2013-12-29 08:02:00,54.0,53.2,29.90,South,188,4.6,6.9,97,0.15, +RA,,0.99,WeatherDisplay:10.37,2013-12-29 13:02:00,
2013-12-29 08:07:00,53.4,52.8,29.91,SSE,154,3.1,15.0,98,0.16,RA,,1.00,WeatherDisplay:10.37,2013-12-29 13:07:00,
2013-12-29 08:12:00,53.2,52.7,29.90,SSW,195,1.9,4.6,98,0.16,RA,,1.01,WeatherDisplay:10.37,2013-12-29 13:12:00,
2013-12-29 08:17:00,53.5,52.9,29.90,SE,145,2.7,4.0,98,0.16,RA,,1.02,WeatherDisplay:10.37,2013-12-29 13:17:00,
2013-12-29 08:22:00,54.4,53.8,29.90,SSE,164,4.6,6.9,98,0.16,RA,,1.03,WeatherDisplay:10.37,2013-12-29 13:22:00,
2013-12-29 08:27:00,55.3,54.7,29.89,SSE,159,4.9,9.0,98,0.15,RA,,1.03,WeatherDisplay:10.37,2013-12-29 13:27:00,
2013-12-29 08:32:00,55.9,55.3,29.90,South,185,6.2,9.2,98,0.14,OVC,,1.03,WeatherDisplay:10.37,2013-12-29 13:32:00,
2013-12-29 08:37:00,56.2,55.6,29.90,SSW,195,4.1,6.9,98,0.12,OVC,,1.03,WeatherDisplay:10.37,2013-12-29 13:37:00,
2013-12-29 08:42:00,56.6,56.0,29.90,South,187,6.2,10.4,98,0.09,OVC,,1.03,WeatherDisplay:10.37,2013-12-29 13:42:00,
2013-12-29 08:47:00,56.9,56.3,29.89,SW,220,5.2,6.9,98,0.07,OVC,,1.03,WeatherDisplay:10.37,2013-12-29 13:47:00,
2013-12-29 08:52:00,57.2,56.6,29.90,SW,221,5.2,6.9,98,0.06,OVC,,1.03,WeatherDisplay:10.37,2013-12-29 13:52:00,
2013-12-29 08:57:00,57.4,56.8,29.90,SSW,212,5.3,7.0,98,0.05,OVC,,1.03,WeatherDisplay:10.37,2013-12-29 13:57:00,
2013-12-29 09:02:00,58.0,57.4,29.90,SSW,196,5.8,9.2,98,0.04,OVC,,1.03,WeatherDisplay:10.37,2013-12-29 14:02:00,
2013-12-29 09:07:00,58.4,57.8,29.90,South,179,7.0,10.4,98,0.03,OVC,,1.03,WeatherDisplay:10.37,2013-12-29 14:07:00,
2013-12-29 09:12:00,58.9,58.3,29.91,South,188,8.7,13.8,98,0.02,OVC,,1.03,WeatherDisplay:10.37,2013-12-29 14:12:00,
2013-12-29 09:17:00,59.3,58.7,29.91,South,190,6.7,13.8,98,0.01,OVC,,1.03,WeatherDisplay:10.37,2013-12-29 14:17:00,
2013-12-29 09:22:00,59.7,59.1,29.91,SW,219,7.0,11.5,98,0.00,-RA,,1.03,WeatherDisplay:10.37,2013-12-29 14:22:00,
2013-12-29 09:27:00,59.9,59.3,29.91,South,186,10.3,12.0,98,0.00,-RA,,1.03,WeatherDisplay:10.37,2013-12-29 14:27:00,
2013-12-29 09:32:00,60.2,59.6,29.91,SSW,201,9.9,15.0,98,0.01,-RA,,1.04,WeatherDisplay:10.37,2013-12-29 14:32:00,
2013-12-29 09:37:00,60.1,59.5,29.92,SSW,204,5.0,6.9,98,0.01,-RA,,1.04,WeatherDisplay:10.37,2013-12-29 14:37:00,
2013-12-29 09:42:00,60.1,59.5,29.92,WNW,292,6.4,15.0,98,0.01,-RA,,1.04,WeatherDisplay:10.37,2013-12-29 14:42:00,
2013-12-29 09:47:00,60.0,59.4,29.92,WSW,249,4.0,6.9,98,0.02,-RA,,1.05,WeatherDisplay:10.37,2013-12-29 14:47:00,
2013-12-29 09:52:00,58.0,57.2,29.93,SW,225,6.7,15.0,97,0.02,-RA,,1.05,WeatherDisplay:10.37,2013-12-29 14:52:00,
2013-12-29 09:57:00,55.9,54.5,29.94,West,267,5.8,11.5,95,0.02,-RA,,1.05,WeatherDisplay:10.37,2013-12-29 14:57:00,
2013-12-29 10:02:00,54.6,52.9,29.94,NW,326,3.3,8.1,94,0.03,-RA,,1.06,WeatherDisplay:10.37,2013-12-29 15:02:00,
2013-12-29 10:07:00,53.6,51.9,29.94,WNW,289,3.0,3.5,94,0.03,-RA,,1.06,WeatherDisplay:10.37,2013-12-29 15:07:00,
2013-12-29 10:12:00,52.8,51.1,29.94,NW,311,3.5,5.8,94,0.03,-RA,,1.06,WeatherDisplay:10.37,2013-12-29 15:12:00,
2013-12-29 10:17:00,52.2,50.5,29.94,SSW,209,2.4,4.0,94,0.03,-RA,,1.06,WeatherDisplay:10.37,2013-12-29 15:17:00,
2013-12-29 10:22:00,51.8,50.4,29.94,WSW,258,3.5,4.0,95,0.03,-RA,,1.06,WeatherDisplay:10.37,2013-12-29 15:22:00,
2013-12-29 10:27:00,51.5,50.1,29.93,WSW,256,3.6,8.1,95,0.03,-RA,,1.06,WeatherDisplay:10.37,2013-12-29 15:27:00,
2013-12-29 10:32:00,51.3,49.9,29.93,WNW,292,4.8,6.9,95,0.02,-RA,,1.06,WeatherDisplay:10.37,2013-12-29 15:32:00,
2013-12-29 10:37:00,51.3,50.2,29.93,SW,228,3.3,5.8,96,0.02,OVC,,1.06,WeatherDisplay:10.37,2013-12-29 15:37:00,
2013-12-29 10:42:00,51.3,50.2,29.93,West,259,3.4,5.8,96,0.02,OVC,,1.06,WeatherDisplay:10.37,2013-12-29 15:42:00,
2013-12-29 10:47:00,51.4,50.3,29.93,West,261,3.8,5.8,96,0.01,OVC,,1.06,WeatherDisplay:10.37,2013-12-29 15:47:00,
2013-12-29 10:52:00,51.6,50.5,29.93,WSW,246,1.4,4.6,96,0.01,OVC,,1.06,WeatherDisplay:10.37,2013-12-29 15:52:00,
2013-12-29 10:57:00,51.8,50.7,29.93,SW,236,5.4,6.9,96,0.01,OVC,,1.06,WeatherDisplay:10.37,2013-12-29 15:57:00,
2013-12-29 11:02:00,51.9,51.1,29.93,SW,227,3.9,8.1,97,0.00,OVC,,1.06,WeatherDisplay:10.37,2013-12-29 16:02:00,
2013-12-29 11:07:00,52.0,51.2,29.93,SW,227,3.1,4.6,97,0.00,OVC,,1.06,WeatherDisplay:10.37,2013-12-29 16:07:00,
2013-12-29 11:12:00,52.3,51.5,29.93,SW,224,3.1,3.5,97,0.00,OVC,,1.06,WeatherDisplay:10.37,2013-12-29 16:12:00,
2013-12-29 11:17:00,52.6,51.8,29.93,SW,226,4.5,10.4,97,0.00,OVC,,1.06,WeatherDisplay:10.37,2013-12-29 16:17:00,
2013-12-29 11:22:00,52.8,52.0,29.93,WSW,243,5.6,11.0,97,0.00,OVC,,1.06,WeatherDisplay:10.37,2013-12-29 16:22:00,
2013-12-29 11:27:00,52.9,52.1,29.94,WNW,294,5.8,13.8,97,0.00,OVC,,1.06,WeatherDisplay:10.37,2013-12-29 16:27:00,
2013-12-29 11:32:00,53.1,52.3,29.94,West,263,3.4,11.5,97,0.00,OVC,,1.06,WeatherDisplay:10.37,2013-12-29 16:32:00,
2013-12-29 11:37:00,53.2,52.4,29.95,West,260,5.2,10.4,97,0.00,OVC,,1.06,WeatherDisplay:10.37,2013-12-29 16:37:00,
2013-12-29 11:42:00,53.0,51.9,29.95,WSW,240,8.3,11.5,96,0.00,OVC,,1.06,WeatherDisplay:10.37,2013-12-29 16:42:00,
2013-12-29 11:47:00,52.9,51.5,29.96,WSW,241,8.6,12.7,95,0.00,OVC,,1.06,WeatherDisplay:10.37,2013-12-29 16:47:00,
2013-12-29 11:52:00,52.8,51.4,29.96,WSW,257,6.6,20.7,95,0.00,OVC,,1.06,WeatherDisplay:10.37,2013-12-29 16:52:00,
2013-12-29 11:57:00,52.8,51.4,29.94,SSW,202,4.8,13.0,95,0.00,OVC,,1.06,WeatherDisplay:10.37,2013-12-29 16:57:00,
2013-12-29 12:02:00,52.9,51.2,29.94,SW,224,9.0,17.0,94,0.00,OVC,,1.06,WeatherDisplay:10.37,2013-12-29 17:02:00,
2013-12-29 12:07:00,53.0,51.3,29.94,SW,224,11.0,15.0,94,0.00,OVC,,1.06,WeatherDisplay:10.37,2013-12-29 17:07:00,
2013-12-29 12:12:00,52.9,50.9,29.94,WSW,253,7.7,18.4,93,0.00,OVC,,1.06,WeatherDisplay:10.37,2013-12-29 17:12:00,
2013-12-29 12:17:00,52.9,51.2,29.94,WSW,254,8.8,12.7,94,0.00,OVC,,1.06,WeatherDisplay:10.37,2013-12-29 17:17:00,
2013-12-29 12:22:00,53.2,51.5,29.94,SW,226,8.5,12.7,94,0.00,OVC,,1.06,WeatherDisplay:10.37,2013-12-29 17:22:00,
2013-12-29 12:27:00,53.4,51.4,29.93,SW,225,4.2,13.8,93,0.00,OVC,,1.06,WeatherDisplay:10.37,2013-12-29 17:27:00,
2013-12-29 12:32:00,53.5,51.5,29.93,SW,232,4.3,8.1,93,0.00,OVC,,1.06,WeatherDisplay:10.37,2013-12-29 17:32:00,
2013-12-29 12:37:00,53.5,51.5,29.93,WSW,249,4.4,5.8,93,0.00,OVC,,1.06,WeatherDisplay:10.37,2013-12-29 17:37:00,
2013-12-29 12:42:00,53.4,51.1,29.93,SW,229,6.7,10.4,92,0.00,OVC,,1.06,WeatherDisplay:10.37,2013-12-29 17:42:00,
2013-12-29 12:56:00,53.1,50.8,29.93,SW,216,3.9,9.2,92,0.00,OVC,,1.06,WeatherDisplay:10.37,2013-12-29 17:56:00,
2013-12-29 13:01:00,53.2,51.2,29.93,SW,236,5.5,10.0,93,0.00,OVC,,1.06,WeatherDisplay:10.37,2013-12-29 18:01:00,
2013-12-29 13:06:00,53.2,50.9,29.93,WSW,237,7.2,11.5,92,0.00,OVC,,1.06,WeatherDisplay:10.37,2013-12-29 18:06:00,
2013-12-29 13:11:00,53.4,50.8,29.94,West,266,7.6,11.5,91,0.00,OVC,,1.06,WeatherDisplay:10.37,2013-12-29 18:11:00,
2013-12-29 13:16:00,53.4,50.8,29.94,West,261,7.7,13.8,91,0.00,OVC,,1.06,WeatherDisplay:10.37,2013-12-29 18:16:00,
2013-12-29 13:21:00,53.3,50.4,29.93,West,279,8.9,16.1,90,0.00,OVC,,1.06,WeatherDisplay:10.37,2013-12-29 18:21:00,
2013-12-29 13:26:00,53.2,50.3,29.93,SW,224,10.0,12.0,90,0.00,OVC,,1.06,WeatherDisplay:10.37,2013-12-29 18:26:00,
2013-12-29 13:31:00,53.1,50.2,29.93,West,259,3.8,11.5,90,0.00,OVC,,1.06,WeatherDisplay:10.37,2013-12-29 18:31:00,
2013-12-29 13:36:00,53.0,50.4,29.93,WSW,243,7.7,11.5,91,0.00,OVC,,1.06,WeatherDisplay:10.37,2013-12-29 18:36:00,
2013-12-29 13:41:00,52.8,50.2,29.93,SW,217,4.8,11.5,91,0.00,OVC,,1.06,WeatherDisplay:10.37,2013-12-29 18:41:00,
2013-12-29 13:46:00,52.6,50.0,29.93,SSE,147,4.0,5.8,91,0.00,OVC,,1.06,WeatherDisplay:10.37,2013-12-29 18:46:00,
2013-12-29 13:51:00,52.4,49.8,29.93,West,270,5.6,8.0,91,0.00,OVC,,1.06,WeatherDisplay:10.37,2013-12-29 18:51:00,
2013-12-29 13:56:00,52.2,49.7,29.94,WNW,298,5.0,6.9,91,0.00,OVC,,1.06,WeatherDisplay:10.37,2013-12-29 18:56:00,
2013-12-29 14:01:00,52.0,49.5,29.94,West,264,4.8,6.9,91,0.00,OVC,,1.06,WeatherDisplay:10.37,2013-12-29 19:01:00,
2013-12-29 14:06:00,51.8,49.3,29.94,SW,220,8.1,16.0,91,0.00,OVC,,1.06,WeatherDisplay:10.37,2013-12-29 19:06:00,
2013-12-29 14:11:00,51.6,49.1,29.94,SSW,203,6.3,10.4,91,0.00,OVC,,1.06,WeatherDisplay:10.37,2013-12-29 19:11:00,
2013-12-29 14:16:00,51.5,49.0,29.94,SW,226,8.0,10.4,91,0.00,OVC,,1.06,WeatherDisplay:10.37,2013-12-29 19:16:00,
2013-12-29 14:21:00,51.3,48.8,29.94,SW,224,5.9,11.5,91,0.00,OVC,,1.06,WeatherDisplay:10.37,2013-12-29 19:21:00,
2013-12-29 14:26:00,51.3,48.8,29.94,South,175,6.3,8.1,91,0.00,OVC,,1.06,WeatherDisplay:10.37,2013-12-29 19:26:00,
2013-12-29 14:31:00,51.3,48.8,29.94,WSW,257,7.0,11.5,91,0.00,OVC,,1.06,WeatherDisplay:10.37,2013-12-29 19:31:00,
2013-12-29 14:36:00,51.4,48.9,29.94,West,265,5.4,11.5,91,0.00,OVC,,1.06,WeatherDisplay:10.37,2013-12-29 19:36:00,
2013-12-29 14:41:00,51.4,48.9,29.94,West,276,6.6,9.2,91,0.00,OVC,,1.06,WeatherDisplay:10.37,2013-12-29 19:41:00,
2013-12-29 14:46:00,51.4,48.6,29.94,WSW,238,5.4,12.7,90,0.00,OVC,,1.06,WeatherDisplay:10.37,2013-12-29 19:46:00,
2013-12-29 14:51:00,51.5,48.7,29.94,SSW,201,6.9,11.5,90,0.00,OVC,,1.06,WeatherDisplay:10.37,2013-12-29 19:51:00,
2013-12-29 14:56:00,51.5,48.7,29.94,SW,233,7.6,13.8,90,0.00,OVC,,1.06,WeatherDisplay:10.37,2013-12-29 19:56:00,
2013-12-29 15:01:00,51.6,49.1,29.94,WSW,243,2.2,3.5,91,0.00,OVC,,1.06,WeatherDisplay:10.37,2013-12-29 20:01:00,
2013-12-29 15:06:00,51.6,49.1,29.94,WNW,288,3.8,5.8,91,0.00,OVC,,1.06,WeatherDisplay:10.37,2013-12-29 20:06:00,
2013-12-29 15:11:00,51.7,49.2,29.94,SW,235,5.1,11.5,91,0.00,OVC,,1.06,WeatherDisplay:10.37,2013-12-29 20:11:00,
2013-12-29 15:16:00,51.7,48.9,29.94,SW,222,7.5,9.2,90,0.00,OVC,,1.06,WeatherDisplay:10.37,2013-12-29 20:16:00,
2013-12-29 15:21:00,51.7,48.9,29.94,SW,220,5.9,9.2,90,0.00,OVC,,1.06,WeatherDisplay:10.37,2013-12-29 20:21:00,
2013-12-29 15:26:00,51.6,48.8,29.94,WSW,237,6.5,13.0,90,0.00,OVC,,1.06,WeatherDisplay:10.37,2013-12-29 20:26:00,
2013-12-29 15:31:00,51.6,48.8,29.94,West,261,8.2,13.8,90,0.00,OVC,,1.06,WeatherDisplay:10.37,2013-12-29 20:31:00,
2013-12-29 15:36:00,51.5,48.7,29.94,West,259,4.1,10.4,90,0.00,OVC,,1.06,WeatherDisplay:10.37,2013-12-29 20:36:00,
2013-12-29 15:41:00,51.5,48.7,29.95,WSW,250,4.0,5.8,90,0.00,OVC,,1.06,WeatherDisplay:10.37,2013-12-29 20:41:00,
2013-12-29 15:46:00,51.5,49.0,29.95,WSW,246,3.8,4.6,91,0.00,OVC,,1.06,WeatherDisplay:10.37,2013-12-29 20:46:00,
2013-12-29 15:51:00,51.4,48.9,29.95,SSW,207,4.8,9.2,91,0.00,OVC,,1.06,WeatherDisplay:10.37,2013-12-29 20:51:00,
2013-12-29 15:56:00,51.4,48.9,29.95,WSW,250,4.6,8.1,91,0.00,OVC,,1.06,WeatherDisplay:10.37,2013-12-29 20:56:00,
2013-12-29 16:01:00,51.3,48.8,29.95,SW,234,7.7,11.5,91,0.00,OVC,,1.06,WeatherDisplay:10.37,2013-12-29 21:01:00,
2013-12-29 16:06:00,51.3,48.8,29.95,South,184,3.3,4.6,91,0.00,OVC,,1.06,WeatherDisplay:10.37,2013-12-29 21:06:00,
2013-12-29 16:11:00,51.3,48.8,29.95,WSW,241,6.9,7.0,91,0.00,OVC,,1.06,WeatherDisplay:10.37,2013-12-29 21:11:00,
2013-12-29 16:16:00,51.3,48.8,29.95,WSW,258,2.9,5.8,91,0.00,OVC,,1.06,WeatherDisplay:10.37,2013-12-29 21:16:00,
2013-12-29 16:21:00,51.3,48.8,29.95,SW,232,4.4,5.8,91,0.00,OVC,,1.06,WeatherDisplay:10.37,2013-12-29 21:21:00,
2013-12-29 16:26:00,51.3,48.8,29.96,West,279,4.5,6.9,91,0.00,OVC,,1.06,WeatherDisplay:10.37,2013-12-29 21:26:00,
2013-12-29 16:31:00,51.3,48.8,29.96,WNW,284,7.2,11.5,91,0.00,OVC,,1.06,WeatherDisplay:10.37,2013-12-29 21:31:00,
2013-12-29 16:36:00,51.4,48.9,29.96,West,279,2.1,5.8,91,0.00,OVC,,1.06,WeatherDisplay:10.37,2013-12-29 21:36:00,
2013-12-29 16:41:00,51.4,48.9,29.96,West,276,4.9,10.4,91,0.00,OVC,,1.06,WeatherDisplay:10.37,2013-12-29 21:41:00,
2013-12-29 16:46:00,51.4,48.9,29.96,West,262,5.7,11.5,91,0.00,OVC,,1.06,WeatherDisplay:10.37,2013-12-29 21:46:00,
2013-12-29 16:51:00,51.4,48.9,29.96,WNW,284,1.7,4.6,91,0.00,OVC,,1.06,WeatherDisplay:10.37,2013-12-29 21:51:00,
2013-12-29 16:56:00,51.4,48.9,29.97,WSW,248,2.6,5.8,91,0.00,OVC,,1.06,WeatherDisplay:10.37,2013-12-29 21:56:00,
2013-12-29 17:01:00,51.4,48.9,29.97,West,266,3.7,4.6,91,0.00,OVC,,1.06,WeatherDisplay:10.37,2013-12-29 22:01:00,
2013-12-29 17:06:00,51.3,48.8,29.97,WSW,257,3.7,4.0,91,0.00,OVC,,1.06,WeatherDisplay:10.37,2013-12-29 22:06:00,
2013-12-29 17:11:00,51.3,48.8,29.97,SSW,210,2.3,4.6,91,0.00,OVC,,1.06,WeatherDisplay:10.37,2013-12-29 22:11:00,
2013-12-29 17:16:00,51.3,48.8,29.97,SW,235,4.0,5.8,91,0.00,OVC,,1.06,WeatherDisplay:10.37,2013-12-29 22:16:00,
2013-12-29 17:21:00,51.3,48.8,29.97,WSW,250,4.5,8.1,91,0.00,OVC,,1.06,WeatherDisplay:10.37,2013-12-29 22:21:00,
2013-12-29 17:26:00,51.2,48.7,29.97,West,274,1.5,4.6,91,0.00,OVC,,1.06,WeatherDisplay:10.37,2013-12-29 22:26:00,
2013-12-29 17:31:00,51.2,48.7,29.97,WSW,247,1.4,4.6,91,0.00,OVC,,1.06,WeatherDisplay:10.37,2013-12-29 22:31:00,
2013-12-29 17:36:00,51.1,48.6,29.98,West,261,3.7,5.8,91,0.00,OVC,,1.06,WeatherDisplay:10.37,2013-12-29 22:36:00,
2013-12-29 17:41:00,50.9,48.4,29.98,SW,234,3.0,3.5,91,0.00,OVC,,1.06,WeatherDisplay:10.37,2013-12-29 22:41:00,
2013-12-29 17:46:00,50.7,48.5,29.98,SW,229,2.8,4.6,92,0.00,OVC,,1.06,WeatherDisplay:10.37,2013-12-29 22:46:00,
2013-12-29 17:51:00,50.5,48.3,29.98,West,270,0.8,3.5,92,0.00,OVC,,1.06,WeatherDisplay:10.37,2013-12-29 22:51:00,
2013-12-29 17:56:00,50.3,48.1,29.98,SW,229,1.3,2.3,92,0.00,OVC,,1.06,WeatherDisplay:10.37,2013-12-29 22:56:00,
2013-12-29 18:01:00,50.0,47.8,29.99,SW,229,1.6,3.5,92,0.00,OVC,,1.06,WeatherDisplay:10.37,2013-12-29 23:01:00,
2013-12-29 18:06:00,49.6,47.4,29.99,WSW,251,1.6,3.5,92,0.00,OVC,,1.06,WeatherDisplay:10.37,2013-12-29 23:06:00,
2013-12-29 18:11:00,49.2,47.0,29.99,SW,224,2.1,3.5,92,0.00,OVC,,1.06,WeatherDisplay:10.37,2013-12-29 23:11:00,
2013-12-29 18:16:00,48.8,46.6,29.99,SW,232,2.2,3.5,92,0.00,OVC,,1.06,WeatherDisplay:10.37,2013-12-29 23:16:00,
2013-12-29 18:21:00,48.5,46.6,29.99,SW,231,1.6,3.5,93,0.00,OVC,,1.06,WeatherDisplay:10.37,2013-12-29 23:21:00,
2013-12-29 18:26:00,48.3,46.4,29.99,SW,229,1.8,2.3,93,0.00,OVC,,1.06,WeatherDisplay:10.37,2013-12-29 23:26:00,
2013-12-29 18:31:00,47.8,45.9,30.00,SW,214,2.4,3.5,93,0.00,OVC,,1.06,WeatherDisplay:10.37,2013-12-29 23:31:00,
2013-12-29 18:36:00,47.3,45.4,29.99,SSW,207,2.4,3.5,93,0.00,SCT,,1.06,WeatherDisplay:10.37,2013-12-29 23:36:00,
2013-12-29 18:41:00,47.0,45.4,30.00,SSW,207,2.0,3.5,94,0.00,SCT,,1.06,WeatherDisplay:10.37,2013-12-29 23:41:00,
2013-12-29 18:46:00,46.8,45.2,30.00,SSW,207,1.9,3.5,94,0.00,SCT,,1.06,WeatherDisplay:10.37,2013-12-29 23:46:00,
2013-12-29 18:51:00,46.5,44.9,30.00,SSW,207,1.3,2.3,94,0.00,SCT,,1.06,WeatherDisplay:10.37,2013-12-29 23:51:00,
2013-12-29 18:56:00,46.4,45.0,30.00,SSW,205,0.8,1.1,95,0.00,SCT,,1.06,WeatherDisplay:10.37,2013-12-29 23:56:00,
2013-12-29 19:01:00,46.3,44.9,30.00,SSW,205,0.5,1.1,95,0.00,SCT,,1.06,WeatherDisplay:10.37,2013-12-30 00:01:00,
2013-12-29 19:06:00,46.1,44.5,30.00,SSW,205,1.0,2.3,94,0.00,CLR,,1.06,WeatherDisplay:10.37,2013-12-30 00:06:00,
2013-12-29 19:11:00,45.8,44.2,30.01,SSW,205,0.3,1.1,94,0.00,CLR,,1.06,WeatherDisplay:10.37,2013-12-30 00:11:00,
2013-12-29 19:16:00,45.5,43.9,30.01,SSW,205,1.1,2.3,94,0.00,CLR,,1.06,WeatherDisplay:10.37,2013-12-30 00:16:00,
2013-12-29 19:21:00,45.3,43.7,30.01,SSW,205,0.7,2.3,94,0.00,CLR,,1.06,WeatherDisplay:10.37,2013-12-30 00:21:00,
2013-12-29 19:26:00,45.0,43.4,30.01,SSW,205,0.0,0.0,94,0.00,CLR,,1.06,WeatherDisplay:10.37,2013-12-30 00:26:00,
2013-12-29 19:31:00,44.8,43.2,30.01,SSW,205,0.7,1.1,94,0.00,CLR,,1.06,WeatherDisplay:10.37,2013-12-30 00:31:00,
2013-12-29 19:36:00,44.7,43.4,30.01,SSW,205,0.3,0.0,95,0.00,CLR,,1.06,WeatherDisplay:10.37,2013-12-30 00:36:00,
2013-12-29 19:41:00,44.5,43.2,30.01,SSW,205,0.3,1.1,95,0.00,CLR,,1.06,WeatherDisplay:10.37,2013-12-30 00:41:00,
2013-12-29 19:46:00,44.2,42.9,30.02,SSW,205,0.7,1.1,95,0.00,CLR,,1.06,WeatherDisplay:10.37,2013-12-30 00:46:00,
2013-12-29 19:51:00,44.0,42.7,30.02,SSW,205,0.0,0.0,95,0.00,CLR,,1.06,WeatherDisplay:10.37,2013-12-30 00:51:00,
2013-12-29 19:56:00,44.0,42.7,30.02,SSW,205,0.0,0.0,95,0.00,CLR,,1.06,WeatherDisplay:10.37,2013-12-30 00:56:00,
2013-12-29 20:01:00,43.8,42.5,30.02,SSW,205,1.3,2.3,95,0.00,CLR,,1.06,WeatherDisplay:10.37,2013-12-30 01:01:00,
2013-12-29 20:06:00,43.6,42.3,30.02,SSW,205,0.3,1.1,95,0.00,CLR,,1.06,WeatherDisplay:10.37,2013-12-30 01:06:00,
2013-12-29 20:11:00,43.5,42.2,30.03,SSW,205,1.2,2.3,95,0.00,CLR,,1.06,WeatherDisplay:10.37,2013-12-30 01:11:00,
2013-12-29 20:16:00,43.3,42.0,30.03,SSW,205,1.5,2.3,95,0.00,CLR,,1.06,WeatherDisplay:10.37,2013-12-30 01:16:00,
2013-12-29 20:21:00,43.1,41.8,30.03,SSW,205,0.0,0.0,95,0.00,CLR,,1.06,WeatherDisplay:10.37,2013-12-30 01:21:00,
2013-12-29 20:26:00,43.1,42.0,30.03,SSW,205,0.0,0.0,96,0.00,CLR,,1.06,WeatherDisplay:10.37,2013-12-30 01:26:00,
2013-12-29 20:31:00,42.9,41.8,30.03,SSW,205,1.4,2.3,96,0.00,CLR,,1.06,WeatherDisplay:10.37,2013-12-30 01:31:00,
2013-12-29 20:35:00,42.8,41.5,30.03,SSW,205,0.9,1.1,95,0.00,CLR,,1.06,WeatherDisplay:10.37,2013-12-30 01:35:00,
2013-12-29 20:40:00,42.6,41.3,30.03,SSW,205,0.0,0.0,95,0.00,CLR,,1.06,WeatherDisplay:10.37,2013-12-30 01:40:00,
2013-12-29 20:45:00,42.5,41.4,30.03,SSW,205,0.0,0.0,96,0.00,CLR,,1.06,WeatherDisplay:10.37,2013-12-30 01:45:00,
2013-12-29 20:50:00,42.4,41.3,30.03,SSW,205,0.7,1.1,96,0.00,CLR,,1.06,WeatherDisplay:10.37,2013-12-30 01:50:00,
2013-12-29 20:55:00,42.2,40.9,30.03,South,184,1.2,2.3,95,0.00,CLR,,1.06,WeatherDisplay:10.37,2013-12-30 01:55:00,
2013-12-29 21:00:00,42.1,41.0,30.04,South,184,1.4,2.3,96,0.00,CLR,,1.06,WeatherDisplay:10.37,2013-12-30 02:00:00,
2013-12-29 21:05:00,42.1,41.0,30.04,South,184,1.2,2.3,96,0.00,CLR,,1.06,WeatherDisplay:10.37,2013-12-30 02:05:00,
2013-12-29 21:10:00,42.0,40.9,30.04,South,184,0.1,1.1,96,0.00,CLR,,1.06,WeatherDisplay:10.37,2013-12-30 02:10:00,
2013-12-29 21:15:00,41.9,40.8,30.04,South,184,0.7,1.1,96,0.00,CLR,,1.06,WeatherDisplay:10.37,2013-12-30 02:15:00,
2013-12-29 21:20:00,41.7,40.6,30.04,South,184,0.1,1.1,96,0.00,CLR,,1.06,WeatherDisplay:10.37,2013-12-30 02:20:00,
2013-12-29 21:25:00,41.6,40.5,30.04,South,184,0.3,1.0,96,0.00,CLR,,1.06,WeatherDisplay:10.37,2013-12-30 02:25:00,
2013-12-29 21:30:00,41.6,40.5,30.04,South,184,1.0,1.1,96,0.00,CLR,,1.06,WeatherDisplay:10.37,2013-12-30 02:30:00,
2013-12-29 21:35:00,41.5,40.4,30.04,South,184,1.1,2.3,96,0.00,CLR,,1.06,WeatherDisplay:10.37,2013-12-30 02:35:00,
2013-12-29 21:40:00,41.4,40.3,30.04,South,184,1.6,2.3,96,0.00,CLR,,1.06,WeatherDisplay:10.37,2013-12-30 02:40:00,
2013-12-29 21:45:00,41.3,40.2,30.05,SW,214,1.9,2.3,96,0.00,CLR,,1.06,WeatherDisplay:10.37,2013-12-30 02:45:00,
2013-12-29 21:50:00,41.4,40.3,30.05,SW,215,1.4,2.3,96,0.00,CLR,,1.06,WeatherDisplay:10.37,2013-12-30 02:50:00,
2013-12-29 21:55:00,41.5,40.4,30.05,SW,215,1.5,2.3,96,0.00,CLR,,1.06,WeatherDisplay:10.37,2013-12-30 02:55:00,
2013-12-29 22:00:00,41.6,40.5,30.05,SW,224,0.7,2.3,96,0.00,CLR,,1.06,WeatherDisplay:10.37,2013-12-30 03:00:00,
2013-12-29 22:05:00,41.8,41.0,30.05,WSW,258,1.3,3.5,97,0.00,CLR,,1.06,WeatherDisplay:10.37,2013-12-30 03:05:00,
2013-12-29 22:10:00,42.0,41.2,30.05,WSW,248,1.3,2.3,97,0.00,CLR,,1.06,WeatherDisplay:10.37,2013-12-30 03:10:00,
2013-12-29 22:15:00,42.2,41.4,30.05,West,279,2.8,4.0,97,0.00,CLR,,1.06,WeatherDisplay:10.37,2013-12-30 03:15:00,
2013-12-29 22:20:00,42.5,41.7,30.06,WSW,237,2.1,3.5,97,0.00,CLR,,1.06,WeatherDisplay:10.37,2013-12-30 03:20:00,
2013-12-29 22:25:00,42.8,42.0,30.06,WSW,250,2.2,3.5,97,0.00,CLR,,1.06,WeatherDisplay:10.37,2013-12-30 03:25:00,
2013-12-29 22:30:00,43.4,42.6,30.06,WSW,238,1.8,3.5,97,0.00,CLR,,1.06,WeatherDisplay:10.37,2013-12-30 03:30:00,
2013-12-29 22:35:00,43.8,43.0,30.06,WSW,243,2.2,3.5,97,0.00,CLR,,1.06,WeatherDisplay:10.37,2013-12-30 03:35:00,
2013-12-29 22:40:00,44.0,43.2,30.06,SW,234,1.5,2.3,97,0.00,CLR,,1.06,WeatherDisplay:10.37,2013-12-30 03:40:00,
2013-12-29 22:45:00,44.1,43.3,30.06,SW,233,2.5,3.5,97,0.00,CLR,,1.06,WeatherDisplay:10.37,2013-12-30 03:45:00,
2013-12-29 22:50:00,44.1,43.3,30.06,SW,227,1.8,3.5,97,0.00,CLR,,1.06,WeatherDisplay:10.37,2013-12-30 03:50:00,
2013-12-29 22:55:00,44.0,43.2,30.06,WSW,237,1.9,3.5,97,0.00,CLR,,1.06,WeatherDisplay:10.37,2013-12-30 03:55:00,
2013-12-29 23:00:00,43.8,43.0,30.06,WSW,252,1.3,3.5,97,0.00,CLR,,1.06,WeatherDisplay:10.37,2013-12-30 04:00:00,
2013-12-29 23:05:00,43.6,42.8,30.05,West,267,1.3,2.3,97,0.00,CLR,,1.06,WeatherDisplay:10.37,2013-12-30 04:05:00,
2013-12-29 23:10:00,43.6,42.8,30.05,West,269,1.7,3.0,97,0.00,CLR,,1.06,WeatherDisplay:10.37,2013-12-30 04:10:00,
2013-12-29 23:15:00,43.4,42.6,30.06,WSW,248,1.4,3.5,97,0.00,CLR,,1.06,WeatherDisplay:10.37,2013-12-30 04:15:00,
2013-12-29 23:20:00,43.1,42.3,30.06,West,262,2.3,2.3,97,0.00,CLR,,1.06,WeatherDisplay:10.37,2013-12-30 04:20:00,
2013-12-29 23:25:00,43.1,42.3,30.06,WSW,249,2.4,3.5,97,0.00,CLR,,1.06,WeatherDisplay:10.37,2013-12-30 04:25:00,
2013-12-29 23:30:00,43.1,42.3,30.06,SW,236,2.9,3.5,97,0.00,CLR,,1.06,WeatherDisplay:10.37,2013-12-30 04:30:00,
2013-12-29 23:35:00,43.2,42.4,30.07,SW,221,2.3,3.5,97,0.00,FEW,,1.06,WeatherDisplay:10.37,2013-12-30 04:35:00,
2013-12-29 23:40:00,43.6,42.8,30.07,SW,215,2.2,3.5,97,0.00,FEW,,1.06,WeatherDisplay:10.37,2013-12-30 04:40:00,
2013-12-29 23:45:00,43.8,43.0,30.06,SW,216,2.0,3.5,97,0.00,FEW,,1.06,WeatherDisplay:10.37,2013-12-30 04:45:00,
2013-12-29 23:50:00,43.8,43.0,30.06,WSW,243,1.2,3.5,97,0.00,FEW,,1.06,WeatherDisplay:10.37,2013-12-30 04:50:00,
2013-12-29 23:55:00,43.7,42.9,30.06,SW,234,2.3,3.5,97,0.00,FEW,,1.06,WeatherDisplay:10.37,2013-12-30 04:55:00,